Time;durP1;ratioP1;P1;durP2;ratioP2;P2;SDS_P1;SDS_P2;PMS_P1;PMS_P2;Temp;Humidity;BMP_temperature;BMP_pressure;BME280_temperature;BME280_humidity;BME280_pressure;Samples;Min_cycle;Max_cycle;Signal;HPM_P1;HPM_P2
2023/06/01 00:02:08;;;;;;;18.83;10.73;;;;;;;;;;5012102;28;20505;-59
2023/06/01 00:04:34;;;;;;;19.17;9.75;;;;;;;;;;5013280;28;20559;-59
2023/06/01 00:07:01;;;;;;;19.23;10.52;;;;;;;;;;5012472;28;20232;-59
2023/06/01 00:09:26;;;;;;;17.08;10.50;;;;;;;;;;5012969;28;20220;-59
2023/06/01 00:11:52;;;;;;;20.38;11.40;;;;;;;;;;5013185;28;20672;-59
2023/06/01 00:14:18;;;;;;;19.50;10.80;;;;;;;;;;5011826;28;20222;-59
2023/06/01 00:16:45;;;;;;;18.15;10.88;;;;;;;;;;5012840;28;20584;-59
2023/06/01 00:19:11;;;;;;;17.20;11.18;;;;;;;;;;5012723;28;20213;-60
2023/06/01 00:21:36;;;;;;;23.83;11.93;;;;;;;;;;5012416;28;20205;-59
2023/06/01 00:24:02;;;;;;;19.85;12.05;;;;;;;;;;5012742;28;20227;-59
2023/06/01 00:26:29;;;;;;;21.05;11.73;;;;;;;;;;5012472;28;20314;-59
2023/06/01 00:28:55;;;;;;;16.73;10.68;;;;;;;;;;5012114;28;20231;-60
2023/06/01 00:31:20;;;;;;;16.60;10.93;;;;;;;;;;5012483;28;20232;-59
2023/06/01 00:33:45;;;;;;;21.13;12.20;;;;;;;;;;5012868;28;20204;-59
2023/06/01 00:36:10;;;;;;;18.05;12.90;;;;;;;;;;5011786;28;20683;-59
2023/06/01 00:38:36;;;;;;;20.77;12.95;;;;;;;;;;5012940;28;20213;-59
2023/06/01 00:41:01;;;;;;;21.02;13.10;;;;;;;;;;5012341;28;20219;-59
2023/06/01 00:43:26;;;;;;;23.17;13.02;;;;;;;;;;5012244;28;20286;-60
2023/06/01 00:45:52;;;;;;;21.95;12.95;;;;;;;;;;5012600;28;20205;-60
2023/06/01 00:48:17;;;;;;;20.30;13.68;;;;;;;;;;5011776;28;20599;-59
2023/06/01 00:50:43;;;;;;;20.60;13.98;;;;;;;;;;5012290;28;20676;-59
2023/06/01 00:53:10;;;;;;;19.77;14.05;;;;;;;;;;5012072;28;20220;-59
2023/06/01 00:55:35;;;;;;;25.70;15.73;;;;;;;;;;5012352;28;20204;-59
2023/06/01 00:58:01;;;;;;;20.98;14.20;;;;;;;;;;5011446;28;20585;-59
2023/06/01 01:00:26;;;;;;;21.42;13.90;;;;;;;;;;5012679;28;20234;-60
2023/06/01 01:02:52;;;;;;;17.25;13.48;;;;;;;;;;5012535;28;20250;-59
2023/06/01 01:05:17;;;;;;;24.48;14.25;;;;;;;;;;5011241;28;20220;-59
2023/06/01 01:07:49;;;;;;;26.13;14.70;;;;;;;;;;5012544;28;20228;-59
2023/06/01 01:10:19;;;;;;;19.98;13.48;;;;;;;;;;5011413;28;20646;-60
2023/06/01 01:12:55;;;;;;;21.60;13.77;;;;;;;;;;5012521;28;20204;-59
2023/06/01 01:15:30;;;;;;;21.15;13.45;;;;;;;;;;5012046;28;20235;-60
2023/06/01 01:18:01;;;;;;;19.35;13.30;;;;;;;;;;5010245;28;20246;-59
2023/06/01 01:20:28;;;;;;;19.88;13.02;;;;;;;;;;5011089;28;20223;-59
2023/06/01 01:23:04;;;;;;;18.02;13.68;;;;;;;;;;5012625;28;20564;-60
2023/06/01 01:25:35;;;;;;;19.42;13.98;;;;;;;;;;4998996;28;20246;-60
2023/06/01 01:28:19;;;;;;;23.23;14.23;;;;;;;;;;4982488;28;20241;-56
2023/06/01 01:30:44;;;;;;;21.75;14.45;;;;;;;;;;4987158;28;20216;-60
2023/06/01 01:33:10;;;;;;;20.88;14.07;;;;;;;;;;4997029;28;20220;-59
2023/06/01 01:35:36;;;;;;;21.88;14.77;;;;;;;;;;5001551;28;20675;-60
2023/06/01 01:38:01;;;;;;;19.85;13.90;;;;;;;;;;5009678;28;20216;-59
2023/06/01 01:40:26;;;;;;;21.30;14.20;;;;;;;;;;4996163;28;20218;-60
2023/06/01 01:42:52;;;;;;;23.60;14.23;;;;;;;;;;4988008;28;20227;-60
2023/06/01 01:45:17;;;;;;;24.92;16.20;;;;;;;;;;5004826;28;20589;-60
2023/06/01 01:47:45;;;;;;;22.83;15.30;;;;;;;;;;4989590;28;20233;-60
2023/06/01 01:50:10;;;;;;;20.70;14.35;;;;;;;;;;5020492;28;20204;-60
2023/06/01 01:52:38;;;;;;;21.58;14.60;;;;;;;;;;5011558;28;20231;-60
2023/06/01 01:55:04;;;;;;;22.23;14.90;;;;;;;;;;5019058;28;20245;-59
2023/06/01 01:57:29;;;;;;;20.30;13.82;;;;;;;;;;5001402;28;20217;-59
2023/06/01 01:59:54;;;;;;;24.58;15.25;;;;;;;;;;4994777;28;20240;-60
2023/06/01 02:02:20;;;;;;;19.95;14.32;;;;;;;;;;4977841;28;20217;-60
2023/06/01 02:04:46;;;;;;;19.52;13.68;;;;;;;;;;5012156;28;20795;-60
2023/06/01 02:07:11;;;;;;;22.90;15.02;;;;;;;;;;5002564;28;20638;-59
2023/06/01 02:09:37;;;;;;;21.85;15.05;;;;;;;;;;4991106;28;20228;-60
2023/06/01 02:12:02;;;;;;;20.20;13.32;;;;;;;;;;4985570;28;20311;-59
2023/06/01 02:14:28;;;;;;;21.08;13.75;;;;;;;;;;4985590;28;20222;-60
2023/06/01 02:16:53;;;;;;;20.35;13.70;;;;;;;;;;4985747;28;20303;-60
2023/06/01 02:19:19;;;;;;;19.55;14.05;;;;;;;;;;4985790;28;20598;-59
2023/06/01 02:21:44;;;;;;;18.83;13.65;;;;;;;;;;4981686;28;20715;-60
2023/06/01 02:24:09;;;;;;;21.65;13.40;;;;;;;;;;4996388;28;20221;-60
2023/06/01 02:26:35;;;;;;;22.42;13.90;;;;;;;;;;5007824;28;20247;-60
2023/06/01 02:29:02;;;;;;;21.13;13.88;;;;;;;;;;5012022;28;20212;-58
2023/06/01 02:31:27;;;;;;;18.58;14.45;;;;;;;;;;4997015;28;20260;-60
2023/06/01 02:33:53;;;;;;;22.10;13.15;;;;;;;;;;4980527;28;20754;-59
2023/06/01 02:36:18;;;;;;;22.77;13.40;;;;;;;;;;4984542;28;20221;-59
2023/06/01 02:38:44;;;;;;;19.90;13.23;;;;;;;;;;5004821;28;20219;-60
2023/06/01 02:41:09;;;;;;;21.40;13.50;;;;;;;;;;5004602;28;20692;-59
2023/06/01 02:43:35;;;;;;;21.15;13.70;;;;;;;;;;5004032;28;20235;-60
2023/06/01 02:46:00;;;;;;;21.55;14.10;;;;;;;;;;5002957;28;20750;-60
2023/06/01 02:48:26;;;;;;;23.15;14.55;;;;;;;;;;4985116;28;20598;-59
2023/06/01 02:50:51;;;;;;;19.52;12.50;;;;;;;;;;4977400;28;20303;-58
2023/06/01 02:53:16;;;;;;;20.25;12.25;;;;;;;;;;4977076;28;20359;-60
2023/06/01 02:55:42;;;;;;;17.83;11.27;;;;;;;;;;4977269;28;20232;-60
2023/06/01 02:58:14;;;;;;;19.55;11.90;;;;;;;;;;4983893;28;20323;-59
2023/06/01 03:00:39;;;;;;;20.98;12.15;;;;;;;;;;5004463;28;20734;-59
2023/06/01 03:03:05;;;;;;;18.52;11.50;;;;;;;;;;4986541;28;20221;-60
2023/06/01 03:05:32;;;;;;;18.00;12.23;;;;;;;;;;4985399;28;20209;-60
2023/06/01 03:07:58;;;;;;;21.20;12.38;;;;;;;;;;5003907;28;20282;-60
2023/06/01 03:10:23;;;;;;;22.15;11.77;;;;;;;;;;5003478;28;20599;-59
2023/06/01 03:12:48;;;;;;;23.00;11.43;;;;;;;;;;5014401;28;20291;-60
2023/06/01 03:15:14;;;;;;;20.80;11.40;;;;;;;;;;4985113;28;20225;-59
2023/06/01 03:17:39;;;;;;;17.58;11.40;;;;;;;;;;4976639;28;20549;-59
2023/06/01 03:20:14;;;;;;;17.15;10.82;;;;;;;;;;4980842;28;20606;-60
2023/06/01 03:22:39;;;;;;;16.83;11.35;;;;;;;;;;5004034;28;20212;-60
2023/06/01 03:25:07;;;;;;;21.15;11.00;;;;;;;;;;5002890;28;20220;-60
2023/06/01 03:27:32;;;;;;;18.95;11.05;;;;;;;;;;5004113;28;20228;-60
2023/06/01 03:29:57;;;;;;;24.25;11.93;;;;;;;;;;5003842;28;20559;-60
2023/06/01 03:32:22;;;;;;;20.55;10.90;;;;;;;;;;5002899;28;20270;-60
2023/06/01 03:34:48;;;;;;;18.15;10.60;;;;;;;;;;4984579;28;20280;-60
2023/06/01 03:37:13;;;;;;;16.88;9.98;;;;;;;;;;4976757;28;20292;-59
2023/06/01 03:39:39;;;;;;;18.95;10.48;;;;;;;;;;4975653;28;20712;-59
2023/06/01 03:42:04;;;;;;;20.65;10.48;;;;;;;;;;4997888;28;20854;-59
2023/06/01 03:44:30;;;;;;;17.92;10.30;;;;;;;;;;5002663;28;20218;-59
2023/06/01 03:46:55;;;;;;;21.50;10.43;;;;;;;;;;4993745;28;20918;-60
2023/06/01 03:49:20;;;;;;;18.17;9.90;;;;;;;;;;4984312;28;20237;-59
2023/06/01 03:51:45;;;;;;;16.98;9.70;;;;;;;;;;4984291;28;20605;-60
2023/06/01 03:54:11;;;;;;;17.35;10.02;;;;;;;;;;4983334;28;20248;-59
2023/06/01 03:56:37;;;;;;;20.10;10.10;;;;;;;;;;4983884;28;20308;-59
2023/06/01 03:59:02;;;;;;;17.67;9.73;;;;;;;;;;4975733;28;20307;-58
2023/06/01 04:01:29;;;;;;;18.95;10.18;;;;;;;;;;4993175;28;20426;-59
2023/06/01 04:03:55;;;;;;;21.10;9.57;;;;;;;;;;4995496;28;20209;-60
2023/06/01 04:06:21;;;;;;;21.75;9.68;;;;;;;;;;5001734;28;20220;-60
2023/06/01 04:08:48;;;;;;;16.00;8.38;;;;;;;;;;5003176;28;20227;-59
2023/06/01 04:11:14;;;;;;;17.17;9.00;;;;;;;;;;5003055;28;20227;-60
2023/06/01 04:13:39;;;;;;;17.80;10.02;;;;;;;;;;5017802;28;20228;-60
2023/06/01 04:16:05;;;;;;;20.77;9.43;;;;;;;;;;4991212;28;20219;-59
2023/06/01 04:18:30;;;;;;;19.73;9.48;;;;;;;;;;5003430;28;20215;-59
2023/06/01 04:20:55;;;;;;;21.83;9.25;;;;;;;;;;4996788;28;20227;-59
2023/06/01 04:23:21;;;;;;;19.30;9.82;;;;;;;;;;4994280;28;20655;-59
2023/06/01 04:25:50;;;;;;;16.63;9.35;;;;;;;;;;4994675;28;20215;-60
2023/06/01 04:28:16;;;;;;;18.08;8.80;;;;;;;;;;4999400;28;20232;-60
2023/06/01 04:30:44;;;;;;;19.30;9.70;;;;;;;;;;5002941;28;20219;-59
2023/06/01 04:33:09;;;;;;;21.40;9.73;;;;;;;;;;5000037;28;20232;-59
2023/06/01 04:35:36;;;;;;;19.00;9.32;;;;;;;;;;4983006;28;20212;-59
2023/06/01 04:38:02;;;;;;;22.70;9.82;;;;;;;;;;4983080;28;20210;-59
2023/06/01 04:40:27;;;;;;;20.77;9.73;;;;;;;;;;4983488;28;20213;-60
2023/06/01 04:42:55;;;;;;;18.08;10.13;;;;;;;;;;4979523;28;20212;-59
2023/06/01 04:45:21;;;;;;;21.65;11.48;;;;;;;;;;4994520;28;20221;-59
2023/06/01 04:47:46;;;;;;;17.73;9.68;;;;;;;;;;4978681;28;20567;-59
2023/06/01 04:50:11;;;;;;;20.30;9.60;;;;;;;;;;4978381;28;20741;-60
2023/06/01 04:52:37;;;;;;;21.35;10.02;;;;;;;;;;4983303;28;20330;-59
2023/06/01 04:55:04;;;;;;;17.70;9.15;;;;;;;;;;4982965;28;20687;-59
2023/06/01 04:57:30;;;;;;;19.17;9.68;;;;;;;;;;4982678;28;20263;-59
2023/06/01 04:59:56;;;;;;;16.48;8.57;;;;;;;;;;4983512;28;20209;-59
2023/06/01 05:02:22;;;;;;;18.95;9.60;;;;;;;;;;4990563;28;20209;-59
2023/06/01 05:04:47;;;;;;;17.67;9.23;;;;;;;;;;4981430;28;20215;-59
2023/06/01 05:07:13;;;;;;;17.52;8.73;;;;;;;;;;4994222;28;20621;-59
2023/06/01 05:09:38;;;;;;;19.30;9.20;;;;;;;;;;4993789;28;20220;-59
2023/06/01 05:12:03;;;;;;;19.70;9.50;;;;;;;;;;4996042;28;20208;-59
2023/06/01 05:14:29;;;;;;;18.90;9.20;;;;;;;;;;4999914;28;20667;-60
2023/06/01 05:16:55;;;;;;;20.55;8.57;;;;;;;;;;4986346;28;20693;-59
2023/06/01 05:19:21;;;;;;;19.95;8.90;;;;;;;;;;4986963;28;20675;-59
2023/06/01 05:21:47;;;;;;;20.90;8.80;;;;;;;;;;5006113;28;20291;-59
2023/06/01 05:24:12;;;;;;;18.10;8.82;;;;;;;;;;5005044;28;20220;-59
2023/06/01 05:26:37;;;;;;;18.58;8.23;;;;;;;;;;5006268;28;20587;-59
2023/06/01 05:29:03;;;;;;;20.65;8.80;;;;;;;;;;4999316;28;20228;-59
2023/06/01 05:31:29;;;;;;;19.73;8.60;;;;;;;;;;4997561;28;20269;-59
2023/06/01 05:33:55;;;;;;;20.40;9.50;;;;;;;;;;4989135;28;21031;-60
2023/06/01 05:36:20;;;;;;;21.17;9.77;;;;;;;;;;5007030;28;20216;-59
2023/06/01 05:38:46;;;;;;;21.13;9.02;;;;;;;;;;5012396;28;20709;-59
2023/06/01 05:41:11;;;;;;;20.80;9.57;;;;;;;;;;5015300;28;20252;-59
2023/06/01 05:43:36;;;;;;;18.42;10.13;;;;;;;;;;5015851;28;20469;-59
2023/06/01 05:46:02;;;;;;;23.88;10.25;;;;;;;;;;5014875;28;20270;-59
2023/06/01 05:48:27;;;;;;;19.40;10.25;;;;;;;;;;5013904;28;20419;-58
2023/06/01 05:50:53;;;;;;;16.95;9.65;;;;;;;;;;5015731;28;20234;-58
2023/06/01 05:53:18;;;;;;;16.92;9.32;;;;;;;;;;5012562;28;20254;-58
2023/06/01 05:55:43;;;;;;;21.98;9.65;;;;;;;;;;5015125;28;20215;-58
2023/06/01 05:58:10;;;;;;;21.20;9.48;;;;;;;;;;5014316;28;20215;-57
2023/06/01 06:00:35;;;;;;;19.45;9.18;;;;;;;;;;5014504;28;20205;-58
2023/06/01 06:03:00;;;;;;;16.33;8.63;;;;;;;;;;5012618;28;20212;-58
2023/06/01 06:05:26;;;;;;;14.00;8.77;;;;;;;;;;5014798;28;20290;-58
2023/06/01 06:07:51;;;;;;;19.30;8.90;;;;;;;;;;5014019;28;20220;-58
2023/06/01 06:10:16;;;;;;;17.57;8.53;;;;;;;;;;5014572;28;20419;-58
2023/06/01 06:12:41;;;;;;;17.25;8.15;;;;;;;;;;5014626;28;20240;-58
2023/06/01 06:15:07;;;;;;;17.27;8.52;;;;;;;;;;5014856;28;20676;-58
2023/06/01 06:17:32;;;;;;;19.75;8.38;;;;;;;;;;5015492;28;20220;-58
2023/06/01 06:19:58;;;;;;;17.88;8.35;;;;;;;;;;5014450;28;20209;-57
2023/06/01 06:22:23;;;;;;;18.80;8.55;;;;;;;;;;5014404;28;20212;-58
2023/06/01 06:24:49;;;;;;;19.50;8.93;;;;;;;;;;5013873;28;20296;-58
2023/06/01 06:27:14;;;;;;;18.15;8.63;;;;;;;;;;5010725;28;20239;-58
2023/06/01 06:29:39;;;;;;;16.05;8.60;;;;;;;;;;5015142;28;20236;-58
2023/06/01 06:32:05;;;;;;;18.98;8.45;;;;;;;;;;5014616;28;20683;-57
2023/06/01 06:34:35;;;;;;;17.52;8.68;;;;;;;;;;5014434;28;20628;-58
2023/06/01 06:37:01;;;;;;;16.33;8.27;;;;;;;;;;5008944;28;20236;-57
2023/06/01 06:39:26;;;;;;;16.05;7.65;;;;;;;;;;4999013;28;20217;-58
2023/06/01 06:41:51;;;;;;;19.65;8.68;;;;;;;;;;5013910;28;20215;-58
2023/06/01 06:44:17;;;;;;;15.43;8.25;;;;;;;;;;5013835;28;20240;-58
2023/06/01 06:46:42;;;;;;;16.45;7.70;;;;;;;;;;5014866;28;20296;-58
2023/06/01 06:49:09;;;;;;;14.95;7.45;;;;;;;;;;5002052;28;20634;-57
2023/06/01 06:51:35;;;;;;;18.35;8.93;;;;;;;;;;4995496;28;20243;-58
2023/06/01 06:54:02;;;;;;;19.48;8.38;;;;;;;;;;5013122;28;20679;-58
2023/06/01 06:56:27;;;;;;;18.20;8.02;;;;;;;;;;5013416;28;20212;-58
2023/06/01 06:58:53;;;;;;;16.95;8.23;;;;;;;;;;5014587;28;20592;-58
2023/06/01 07:01:18;;;;;;;16.08;8.95;;;;;;;;;;5014092;28;20267;-58
2023/06/01 07:03:43;;;;;;;19.27;9.00;;;;;;;;;;5013666;28;20299;-58
2023/06/01 07:06:08;;;;;;;15.20;8.45;;;;;;;;;;5014023;28;20224;-58
2023/06/01 07:08:34;;;;;;;17.23;8.35;;;;;;;;;;5014263;28;20229;-58
2023/06/01 07:10:59;;;;;;;20.85;8.23;;;;;;;;;;5013389;28;20263;-58
2023/06/01 07:13:25;;;;;;;17.27;8.38;;;;;;;;;;5013692;28;20311;-58
2023/06/01 07:15:50;;;;;;;13.65;8.20;;;;;;;;;;5014077;28;20215;-58
2023/06/01 07:18:15;;;;;;;16.60;8.13;;;;;;;;;;5013039;28;20212;-58
2023/06/01 07:20:41;;;;;;;15.80;8.25;;;;;;;;;;5013875;28;20220;-58
2023/06/01 07:23:06;;;;;;;15.43;7.53;;;;;;;;;;5005623;28;20208;-58
2023/06/01 07:25:31;;;;;;;18.40;8.73;;;;;;;;;;5023816;28;20750;-58
2023/06/01 07:27:58;;;;;;;17.60;8.20;;;;;;;;;;5033479;28;20250;-58
2023/06/01 07:30:23;;;;;;;15.15;8.23;;;;;;;;;;5013344;28;20205;-58
2023/06/01 07:32:48;;;;;;;14.00;7.10;;;;;;;;;;5011340;28;20216;-58
2023/06/01 07:35:14;;;;;;;17.38;7.63;;;;;;;;;;5013481;28;20707;-58
2023/06/01 07:37:40;;;;;;;14.35;7.20;;;;;;;;;;5009899;28;20247;-58
2023/06/01 07:40:06;;;;;;;14.65;6.93;;;;;;;;;;5013049;28;20219;-58
2023/06/01 07:42:31;;;;;;;14.48;7.78;;;;;;;;;;5013604;28;20208;-58
2023/06/01 07:44:57;;;;;;;13.90;6.68;;;;;;;;;;5010858;28;20262;-58
2023/06/01 07:47:24;;;;;;;13.65;6.90;;;;;;;;;;5012754;28;20674;-58
2023/06/01 07:49:50;;;;;;;13.27;7.22;;;;;;;;;;5013163;28;20299;-58
2023/06/01 07:52:15;;;;;;;13.40;6.90;;;;;;;;;;5011370;28;20303;-58
2023/06/01 07:54:40;;;;;;;13.82;6.35;;;;;;;;;;5011030;28;20618;-58
2023/06/01 07:57:06;;;;;;;15.52;6.47;;;;;;;;;;5012263;28;20608;-58
2023/06/01 07:59:31;;;;;;;11.85;5.88;;;;;;;;;;5011085;28;20606;-58
2023/06/01 08:01:57;;;;;;;15.25;6.50;;;;;;;;;;5013008;28;20665;-58
2023/06/01 08:04:22;;;;;;;12.43;6.15;;;;;;;;;;5012595;28;20208;-58
2023/06/01 08:06:49;;;;;;;12.25;5.95;;;;;;;;;;5011688;28;20307;-58
2023/06/01 08:09:14;;;;;;;13.57;6.15;;;;;;;;;;5012644;28;20712;-58
2023/06/01 08:11:39;;;;;;;10.20;5.70;;;;;;;;;;5013065;28;20209;-58
2023/06/01 08:14:07;;;;;;;13.23;6.20;;;;;;;;;;5011644;28;20208;-58
2023/06/01 08:16:32;;;;;;;10.93;6.15;;;;;;;;;;5013190;28;20614;-58
2023/06/01 08:18:58;;;;;;;13.70;6.20;;;;;;;;;;5013192;28;20204;-58
2023/06/01 08:21:24;;;;;;;11.10;6.38;;;;;;;;;;5011606;28;20243;-58
2023/06/01 08:23:51;;;;;;;16.05;7.60;;;;;;;;;;5013013;28;20574;-58
2023/06/01 08:26:16;;;;;;;16.70;6.78;;;;;;;;;;5011575;28;20204;-58
2023/06/01 08:28:43;;;;;;;10.43;6.35;;;;;;;;;;5012121;28;20236;-58
2023/06/01 08:31:08;;;;;;;11.23;6.35;;;;;;;;;;5010804;28;20555;-59
2023/06/01 08:33:33;;;;;;;12.32;7.05;;;;;;;;;;5011946;28;20298;-58
2023/06/01 08:35:59;;;;;;;14.43;6.38;;;;;;;;;;5010434;28;20223;-58
2023/06/01 08:38:28;;;;;;;12.13;6.53;;;;;;;;;;5011212;28;20208;-58
2023/06/01 08:40:53;;;;;;;12.55;7.18;;;;;;;;;;5011892;28;20208;-58
2023/06/01 08:43:19;;;;;;;13.80;6.88;;;;;;;;;;5017490;28;20216;-58
2023/06/01 08:45:45;;;;;;;12.73;6.88;;;;;;;;;;5012754;28;20654;-58
2023/06/01 08:48:10;;;;;;;14.73;6.40;;;;;;;;;;5010774;28;20224;-57
2023/06/01 08:50:36;;;;;;;12.55;6.72;;;;;;;;;;5009551;28;20243;-58
2023/06/01 08:53:01;;;;;;;12.57;6.25;;;;;;;;;;5008841;28;20228;-58
2023/06/01 08:55:26;;;;;;;12.68;5.97;;;;;;;;;;5022270;28;20683;-59
2023/06/01 08:57:52;;;;;;;13.68;7.00;;;;;;;;;;5010429;28;20219;-58
2023/06/01 09:00:18;;;;;;;12.95;7.40;;;;;;;;;;5010900;28;20205;-58
2023/06/01 09:02:43;;;;;;;15.13;7.03;;;;;;;;;;5010944;28;20212;-58
2023/06/01 09:05:09;;;;;;;14.43;6.90;;;;;;;;;;5011098;28;20250;-57
2023/06/01 09:07:34;;;;;;;12.57;6.88;;;;;;;;;;5011610;28;20223;-58
2023/06/01 09:09:59;;;;;;;10.63;7.00;;;;;;;;;;5011313;28;20216;-58
2023/06/01 09:12:25;;;;;;;12.33;7.30;;;;;;;;;;5010418;28;20516;-58
2023/06/01 09:15:10;;;;;;;14.20;7.60;;;;;;;;;;5011626;28;20228;-58
2023/06/01 09:17:35;;;;;;;14.20;8.02;;;;;;;;;;5010723;28;20204;-58
2023/06/01 09:20:01;;;;;;;11.20;6.47;;;;;;;;;;5011658;28;20220;-58
2023/06/01 09:22:37;;;;;;;13.18;6.82;;;;;;;;;;5011760;28;20283;-58
2023/06/01 09:25:03;;;;;;;11.55;6.45;;;;;;;;;;5011524;28;20224;-58
2023/06/01 09:27:28;;;;;;;10.13;6.63;;;;;;;;;;5011443;28;20236;-58
2023/06/01 09:29:54;;;;;;;12.88;6.90;;;;;;;;;;5010809;28;20220;-58
2023/06/01 09:32:20;;;;;;;13.77;6.82;;;;;;;;;;5010153;28;20248;-58
2023/06/01 09:34:46;;;;;;;12.88;6.07;;;;;;;;;;5011779;28;20266;-58
2023/06/01 09:37:11;;;;;;;13.35;6.53;;;;;;;;;;5010057;28;20233;-58
2023/06/01 09:39:36;;;;;;;12.35;6.22;;;;;;;;;;5010526;28;20671;-58
2023/06/01 09:42:02;;;;;;;14.18;5.85;;;;;;;;;;5011258;28;20295;-59
2023/06/01 09:44:28;;;;;;;12.60;6.35;;;;;;;;;;5010429;28;20705;-58
2023/06/01 09:46:55;;;;;;;9.80;5.82;;;;;;;;;;5011421;28;20227;-58
2023/06/01 09:49:21;;;;;;;14.73;6.20;;;;;;;;;;5011199;28;20216;-58
2023/06/01 09:51:47;;;;;;;14.82;6.57;;;;;;;;;;5010627;28;20299;-58
2023/06/01 09:54:22;;;;;;;13.10;6.88;;;;;;;;;;5010648;28;20639;-58
2023/06/01 09:56:47;;;;;;;10.45;6.30;;;;;;;;;;5007541;28;20216;-58
2023/06/01 09:59:14;;;;;;;10.45;6.70;;;;;;;;;;5008826;28;20219;-59
2023/06/01 10:01:39;;;;;;;11.93;6.50;;;;;;;;;;5010230;28;20243;-59
2023/06/01 10:04:04;;;;;;;13.18;6.47;;;;;;;;;;5012101;28;20232;-58
2023/06/01 10:06:31;;;;;;;12.18;6.80;;;;;;;;;;5004231;28;20213;-58
2023/06/01 10:08:56;;;;;;;12.75;7.10;;;;;;;;;;5014496;28;20327;-59
2023/06/01 10:11:22;;;;;;;14.50;7.72;;;;;;;;;;5008247;28;20643;-58
2023/06/01 10:13:47;;;;;;;16.77;7.63;;;;;;;;;;5011998;28;20227;-58
2023/06/01 10:16:12;;;;;;;13.82;6.55;;;;;;;;;;5014291;28;20213;-58
2023/06/01 10:18:38;;;;;;;11.80;7.00;;;;;;;;;;5014956;28;20577;-58
2023/06/01 10:21:06;;;;;;;12.25;6.68;;;;;;;;;;5013401;28;20212;-58
2023/06/01 10:23:31;;;;;;;14.63;6.53;;;;;;;;;;5014886;28;20204;-58
2023/06/01 10:25:57;;;;;;;13.32;6.88;;;;;;;;;;5012540;28;20208;-58
2023/06/01 10:28:23;;;;;;;13.68;6.15;;;;;;;;;;5013986;28;20312;-58
2023/06/01 10:31:08;;;;;;;12.77;6.50;;;;;;;;;;5014581;28;20208;-58
2023/06/01 10:33:53;;;;;;;12.18;6.93;;;;;;;;;;5013505;28;20718;-58
2023/06/01 10:36:18;;;;;;;13.07;6.53;;;;;;;;;;5013860;28;20223;-58
2023/06/01 10:38:44;;;;;;;11.65;6.35;;;;;;;;;;5014471;28;20573;-58
2023/06/01 10:41:26;;;;;;;11.35;7.00;;;;;;;;;;5012327;28;20220;-57
2023/06/01 10:43:52;;;;;;;10.65;5.82;;;;;;;;;;5014422;28;20305;-58
2023/06/01 10:46:30;;;;;;;12.77;5.85;;;;;;;;;;5013895;28;20232;-58
2023/06/01 10:48:56;;;;;;;11.82;5.85;;;;;;;;;;5013298;28;20227;-58
2023/06/01 10:51:22;;;;;;;11.32;6.47;;;;;;;;;;5013710;28;20213;-58
2023/06/01 10:53:47;;;;;;;10.18;5.80;;;;;;;;;;5014231;28;20201;-58
2023/06/01 10:56:23;;;;;;;11.52;6.32;;;;;;;;;;5011780;28;20615;-59
2023/06/01 10:59:07;;;;;;;12.25;6.90;;;;;;;;;;5014266;28;20301;-58
2023/06/01 11:01:33;;;;;;;12.00;6.10;;;;;;;;;;5012860;28;20216;-59
2023/06/01 11:03:58;;;;;;;14.23;6.07;;;;;;;;;;5012659;28;20676;-58
2023/06/01 11:06:25;;;;;;;9.85;6.47;;;;;;;;;;5013372;28;20226;-58
2023/06/01 11:08:51;;;;;;;14.63;7.60;;;;;;;;;;5011704;28;20212;-58
2023/06/01 11:11:17;;;;;;;16.60;6.63;;;;;;;;;;5013526;28;20217;-58
2023/06/01 11:13:43;;;;;;;13.35;6.60;;;;;;;;;;5013855;28;20219;-59
2023/06/01 11:16:10;;;;;;;13.75;6.28;;;;;;;;;;5011671;28;20240;-58
2023/06/01 11:18:39;;;;;;;13.20;6.82;;;;;;;;;;5013743;28;20235;-58
2023/06/01 11:21:06;;;;;;;12.77;6.32;;;;;;;;;;5013115;28;20224;-59
2023/06/01 11:23:31;;;;;;;11.80;6.30;;;;;;;;;;5013056;28;20298;-58
2023/06/01 11:25:56;;;;;;;13.80;6.72;;;;;;;;;;5012330;28;20667;-59
2023/06/01 11:28:21;;;;;;;13.13;6.72;;;;;;;;;;5011678;28;20611;-59
2023/06/01 11:30:47;;;;;;;14.88;7.05;;;;;;;;;;5012742;28;20209;-58
2023/06/01 11:33:12;;;;;;;14.35;7.55;;;;;;;;;;5013040;28;20220;-58
2023/06/01 11:35:37;;;;;;;13.77;7.22;;;;;;;;;;5011956;28;20609;-58
2023/06/01 11:38:03;;;;;;;11.57;6.60;;;;;;;;;;5012287;28;20693;-59
2023/06/01 11:40:28;;;;;;;12.18;6.85;;;;;;;;;;5010603;28;20226;-59
2023/06/01 11:42:53;;;;;;;13.23;6.75;;;;;;;;;;5010706;28;20295;-59
2023/06/01 11:45:19;;;;;;;11.95;6.93;;;;;;;;;;5008956;28;20217;-59
2023/06/01 11:47:45;;;;;;;13.65;7.20;;;;;;;;;;5012814;28;20224;-59
2023/06/01 11:50:20;;;;;;;11.05;6.40;;;;;;;;;;5012171;28;20282;-59
2023/06/01 11:52:45;;;;;;;12.57;6.63;;;;;;;;;;5013089;28;20574;-59
2023/06/01 11:55:11;;;;;;;11.43;6.10;;;;;;;;;;5012592;28;20702;-59
2023/06/01 11:57:39;;;;;;;15.52;6.90;;;;;;;;;;5012282;28;20231;-58
2023/06/01 12:00:07;;;;;;;12.20;6.05;;;;;;;;;;5012328;28;20263;-59
2023/06/01 12:02:32;;;;;;;12.38;6.53;;;;;;;;;;5011519;28;20311;-59
2023/06/01 12:04:58;;;;;;;13.90;7.30;;;;;;;;;;5011620;28;20295;-58
2023/06/01 12:07:24;;;;;;;13.50;7.50;;;;;;;;;;5012322;28;20228;-59
2023/06/01 12:09:51;;;;;;;10.82;6.63;;;;;;;;;;5012740;28;20307;-58
2023/06/01 12:12:17;;;;;;;13.68;6.43;;;;;;;;;;5010151;28;20213;-58
2023/06/01 12:14:43;;;;;;;12.48;6.40;;;;;;;;;;5012491;28;20220;-59
2023/06/01 12:17:11;;;;;;;11.48;6.45;;;;;;;;;;5012118;28;20205;-59
2023/06/01 12:19:44;;;;;;;15.95;7.88;;;;;;;;;;5011507;28;20659;-59
2023/06/01 12:22:09;;;;;;;17.88;6.93;;;;;;;;;;5012220;28;20274;-59
2023/06/01 12:24:35;;;;;;;16.98;7.65;;;;;;;;;;5012090;28;20208;-58
2023/06/01 12:27:00;;;;;;;15.02;6.78;;;;;;;;;;5011551;28;20236;-58
2023/06/01 12:29:38;;;;;;;13.38;7.07;;;;;;;;;;5012090;28;20606;-59
2023/06/01 12:32:03;;;;;;;15.05;6.60;;;;;;;;;;5011795;28;20215;-59
2023/06/01 12:34:29;;;;;;;11.77;6.90;;;;;;;;;;5011386;28;20213;-58
2023/06/01 12:36:54;;;;;;;13.27;6.82;;;;;;;;;;5012402;28;20221;-59
2023/06/01 12:39:31;;;;;;;12.32;6.53;;;;;;;;;;5011780;28;20212;-58
2023/06/01 12:41:56;;;;;;;11.88;5.78;;;;;;;;;;5011657;28;20212;-58
2023/06/01 12:44:22;;;;;;;8.35;5.25;;;;;;;;;;5011814;28;20728;-59
2023/06/01 12:46:48;;;;;;;10.25;5.30;;;;;;;;;;5011189;28;20263;-58
2023/06/01 12:49:14;;;;;;;10.65;5.63;;;;;;;;;;5009880;28;20691;-58
2023/06/01 12:51:39;;;;;;;12.07;5.25;;;;;;;;;;5012261;28;20638;-59
2023/06/01 12:54:04;;;;;;;10.82;5.40;;;;;;;;;;5010807;28;20212;-59
2023/06/01 12:56:30;;;;;;;10.10;5.00;;;;;;;;;;5022425;28;20302;-59
2023/06/01 12:58:55;;;;;;;12.05;5.28;;;;;;;;;;5031837;28;20335;-58
2023/06/01 13:01:20;;;;;;;9.35;4.65;;;;;;;;;;5030698;28;20616;-59
2023/06/01 13:03:45;;;;;;;13.05;5.43;;;;;;;;;;5031608;28;20210;-58
2023/06/01 13:06:11;;;;;;;10.18;5.53;;;;;;;;;;5031017;28;20208;-58
2023/06/01 13:08:37;;;;;;;9.60;4.80;;;;;;;;;;5030797;28;20289;-58
2023/06/01 13:11:02;;;;;;;8.82;5.13;;;;;;;;;;5031255;28;20237;-59
2023/06/01 13:13:28;;;;;;;8.02;5.28;;;;;;;;;;5030326;28;20241;-58
2023/06/01 13:15:54;;;;;;;10.00;5.50;;;;;;;;;;5010112;28;20205;-58
2023/06/01 13:18:19;;;;;;;10.07;6.03;;;;;;;;;;5010199;28;20267;-59
2023/06/01 13:20:44;;;;;;;9.70;5.45;;;;;;;;;;5009154;28;20213;-59
2023/06/01 13:23:11;;;;;;;11.18;5.13;;;;;;;;;;5010135;28;20561;-58
2023/06/01 13:25:36;;;;;;;9.90;5.40;;;;;;;;;;5011390;28;20212;-58
2023/06/01 13:28:02;;;;;;;8.45;5.38;;;;;;;;;;5011035;28;20294;-58
2023/06/01 13:30:28;;;;;;;9.65;5.80;;;;;;;;;;5011143;28;20566;-58
2023/06/01 13:32:54;;;;;;;8.85;4.90;;;;;;;;;;5009171;28;20667;-58
2023/06/01 13:35:19;;;;;;;8.38;5.10;;;;;;;;;;5011722;28;20219;-58
2023/06/01 13:37:45;;;;;;;9.55;6.28;;;;;;;;;;5014051;28;20212;-58
2023/06/01 13:40:10;;;;;;;10.52;5.47;;;;;;;;;;5014318;28;20711;-59
2023/06/01 13:42:36;;;;;;;9.57;5.75;;;;;;;;;;5015326;28;20220;-58
2023/06/01 13:45:01;;;;;;;9.43;5.65;;;;;;;;;;5014532;28;20212;-59
2023/06/01 13:47:27;;;;;;;8.88;5.10;;;;;;;;;;5015438;28;20220;-58
2023/06/01 13:49:52;;;;;;;10.73;5.35;;;;;;;;;;5011300;28;20311;-58
2023/06/01 13:52:18;;;;;;;10.40;5.90;;;;;;;;;;5023501;28;20292;-58
2023/06/01 13:54:43;;;;;;;11.70;6.30;;;;;;;;;;5015209;28;20213;-58
2023/06/01 13:57:09;;;;;;;10.57;5.85;;;;;;;;;;5009978;28;20216;-58
2023/06/01 13:59:35;;;;;;;10.88;5.75;;;;;;;;;;4991160;28;20220;-58
2023/06/01 14:02:01;;;;;;;11.15;6.93;;;;;;;;;;4989086;28;20390;-59
2023/06/01 14:04:26;;;;;;;12.55;6.43;;;;;;;;;;5001211;28;20219;-58
2023/06/01 14:06:52;;;;;;;9.50;6.53;;;;;;;;;;4998859;28;20711;-58
2023/06/01 14:09:17;;;;;;;9.98;6.50;;;;;;;;;;5008452;28;20275;-58
2023/06/01 14:11:43;;;;;;;14.95;7.15;;;;;;;;;;5007863;28;20212;-58
2023/06/01 14:14:08;;;;;;;13.25;6.55;;;;;;;;;;5006633;28;20212;-58
2023/06/01 14:16:33;;;;;;;12.70;6.30;;;;;;;;;;4989823;28;20239;-58
2023/06/01 14:18:58;;;;;;;12.15;6.28;;;;;;;;;;4988883;28;20623;-58
2023/06/01 14:21:24;;;;;;;16.75;6.93;;;;;;;;;;4983213;28;20287;-58